createdAt,value
2022-10-01T00:00:58.006Z,47.64
2022-10-01T00:01:58.137Z,47.66
2022-10-01T00:02:58.155Z,47.71
2022-10-01T00:03:58.203Z,47.71
2022-10-01T00:04:58.246Z,47.75
2022-10-01T00:05:58.324Z,47.78
2022-10-01T00:06:58.334Z,47.80
2022-10-01T00:07:58.424Z,47.86
2022-10-01T00:08:58.445Z,47.84
2022-10-01T00:09:58.514Z,47.87
2022-10-01T00:10:58.566Z,47.88
2022-10-01T00:11:58.612Z,47.90
2022-10-01T00:12:58.668Z,47.88
2022-10-01T00:13:58.690Z,47.88
2022-10-01T00:15:01.953Z,47.88
2022-10-01T00:15:58.806Z,47.89
2022-10-01T00:16:58.893Z,47.87
2022-10-01T00:17:58.916Z,47.87
2022-10-01T00:18:58.930Z,47.87
2022-10-01T00:19:58.994Z,47.87
2022-10-01T00:20:59.042Z,47.88
2022-10-01T00:21:59.135Z,47.89
2022-10-01T00:22:59.149Z,47.96
2022-10-01T00:23:59.206Z,48.02
2022-10-01T00:24:59.272Z,47.99
2022-10-01T00:25:59.319Z,47.97
2022-10-01T00:26:59.385Z,48.02
2022-10-01T00:27:59.464Z,48.07
2022-10-01T00:28:59.491Z,48.13
2022-10-01T00:29:59.550Z,48.19
2022-10-01T00:30:59.681Z,48.26
2022-10-01T00:31:59.718Z,48.30
2022-10-01T00:32:59.738Z,48.25
2022-10-01T00:33:59.795Z,48.25
2022-10-01T00:34:59.835Z,48.25
2022-10-01T00:35:59.888Z,48.25
2022-10-01T00:36:59.924Z,48.23
2022-10-01T00:37:59.982Z,48.23
2022-10-01T00:39:00.047Z,48.21
2022-10-01T00:40:00.091Z,48.24
2022-10-01T00:41:00.150Z,48.23
2022-10-01T00:42:00.200Z,48.25
2022-10-01T00:43:00.276Z,48.26
2022-10-01T00:44:00.306Z,48.27
2022-10-01T00:45:00.372Z,48.27
2022-10-01T00:46:00.467Z,48.28
2022-10-01T00:47:00.459Z,48.32
2022-10-01T00:48:00.562Z,48.31
2022-10-01T00:49:00.560Z,48.29
2022-10-01T00:50:00.607Z,48.37
2022-10-01T00:51:00.687Z,48.41
2022-10-01T00:52:00.723Z,48.48
2022-10-01T00:53:00.777Z,48.51
2022-10-01T00:54:00.816Z,48.53
2022-10-01T00:55:00.885Z,48.56
2022-10-01T00:56:00.930Z,48.57
2022-10-01T00:57:00.997Z,48.60
2022-10-01T00:58:01.021Z,48.63
2022-10-01T00:59:01.074Z,48.60
2022-10-01T01:00:01.118Z,48.58
2022-10-01T01:01:01.229Z,48.59
2022-10-01T01:02:01.279Z,48.60
2022-10-01T01:03:01.258Z,48.57
2022-10-01T01:04:01.310Z,48.56
2022-10-01T01:05:01.375Z,48.58
2022-10-01T01:06:01.411Z,48.60
2022-10-01T01:07:01.490Z,48.58
2022-10-01T01:08:01.512Z,48.62
2022-10-01T01:09:01.574Z,48.64
2022-10-01T01:10:01.625Z,48.63
2022-10-01T01:11:01.670Z,48.62
2022-10-01T01:12:01.729Z,48.61
2022-10-01T01:13:01.835Z,48.60
2022-10-01T01:14:01.837Z,48.58
2022-10-01T01:15:01.897Z,48.58
2022-10-01T01:16:02.037Z,48.58
2022-10-01T01:17:02.017Z,48.58
2022-10-01T01:18:02.082Z,48.58
2022-10-01T01:19:02.142Z,48.55
2022-10-01T01:20:02.216Z,48.57
2022-10-01T01:21:02.256Z,48.56
2022-10-01T01:22:02.305Z,48.57
2022-10-01T01:23:02.361Z,48.58
2022-10-01T01:24:02.421Z,48.58
2022-10-01T01:25:02.517Z,48.60
2022-10-01T01:26:02.542Z,48.59
2022-10-01T01:27:02.633Z,48.60
2022-10-01T01:28:02.723Z,48.60
2022-10-01T01:29:02.721Z,48.60
2022-10-01T01:30:02.771Z,48.60
2022-10-01T01:31:02.861Z,48.61
2022-10-01T01:32:02.886Z,48.60
2022-10-01T01:33:02.906Z,48.61
2022-10-01T01:34:02.984Z,48.63
2022-10-01T01:35:03.008Z,48.63
2022-10-01T01:36:03.023Z,48.64
2022-10-01T01:37:03.103Z,48.63
2022-10-01T01:38:03.128Z,48.65
2022-10-01T01:39:03.168Z,48.68
2022-10-01T01:40:03.236Z,48.70
2022-10-01T01:41:03.298Z,48.72
2022-10-01T01:42:03.401Z,48.74
2022-10-01T01:43:03.399Z,48.74
2022-10-01T01:44:03.462Z,48.75
2022-10-01T01:45:03.506Z,48.77
2022-10-01T01:46:03.646Z,48.79
2022-10-01T01:47:03.630Z,48.78
2022-10-01T01:48:03.673Z,48.81
2022-10-01T01:49:03.717Z,48.82
2022-10-01T01:50:03.751Z,48.84
2022-10-01T01:51:03.813Z,48.85
2022-10-01T01:52:03.882Z,48.88
2022-10-01T01:53:03.932Z,48.91
2022-10-01T01:54:03.974Z,48.95
2022-10-01T01:55:04.051Z,49.07
2022-10-01T01:56:04.125Z,49.04
2022-10-01T01:57:04.200Z,48.99
2022-10-01T01:58:04.264Z,49.02
2022-10-01T01:59:04.323Z,49.02
2022-10-01T02:00:04.396Z,49.03
2022-10-01T02:01:04.482Z,49.03
2022-10-01T02:02:04.677Z,49.04
2022-10-01T02:03:04.572Z,49.01
2022-10-01T02:04:04.634Z,49.07
2022-10-01T02:05:04.701Z,49.04
2022-10-01T02:06:04.747Z,49.02
2022-10-01T02:07:04.811Z,49.02
2022-10-01T02:08:04.862Z,49.06
2022-10-01T02:09:04.914Z,49.06
2022-10-01T02:10:04.986Z,49.03
2022-10-01T02:11:05.032Z,49.03
2022-10-01T02:12:05.108Z,49.05
2022-10-01T02:13:05.162Z,49.12
2022-10-01T02:14:05.207Z,49.15
2022-10-01T02:15:05.275Z,49.14
2022-10-01T02:16:05.359Z,49.12
2022-10-01T02:17:05.437Z,49.08
2022-10-01T02:18:05.445Z,49.08
2022-10-01T02:19:05.533Z,49.05
2022-10-01T02:20:05.571Z,49.04
2022-10-01T02:21:05.624Z,49.03
2022-10-01T02:22:05.678Z,49.05
2022-10-01T02:23:05.742Z,49.05
2022-10-01T02:24:05.780Z,49.04
2022-10-01T02:25:05.857Z,49.04
2022-10-01T02:26:05.904Z,49.02
2022-10-01T02:27:05.958Z,49.02
2022-10-01T02:28:06.091Z,49.01
2022-10-01T02:29:06.039Z,49.03
2022-10-01T02:30:06.127Z,49.13
2022-10-01T02:31:06.209Z,49.23
2022-10-01T02:32:06.262Z,49.17
2022-10-01T02:33:06.304Z,49.16
2022-10-01T02:34:08.600Z,49.22
2022-10-01T02:35:06.404Z,49.22
2022-10-01T02:36:06.425Z,49.26
2022-10-01T02:37:06.501Z,49.30
2022-10-01T02:38:06.559Z,49.32
2022-10-01T02:39:06.569Z,49.32
2022-10-01T02:40:06.641Z,49.26
2022-10-01T02:41:06.690Z,49.27
2022-10-01T02:42:06.748Z,49.26
2022-10-01T02:43:06.794Z,49.27
2022-10-01T02:44:06.863Z,49.27
2022-10-01T02:45:06.913Z,49.23
2022-10-01T02:46:06.995Z,49.25
2022-10-01T02:47:07.023Z,49.21
2022-10-01T02:48:07.066Z,49.18
2022-10-01T02:49:07.146Z,49.23
2022-10-01T02:50:07.180Z,49.24
2022-10-01T02:51:07.247Z,49.21
2022-10-01T02:52:07.304Z,49.18
2022-10-01T02:53:07.375Z,49.19
2022-10-01T02:54:07.450Z,49.18
2022-10-01T02:55:07.491Z,49.17
2022-10-01T02:56:07.528Z,49.19
2022-10-01T02:57:07.602Z,49.19
2022-10-01T02:58:07.643Z,49.20
2022-10-01T02:59:07.693Z,49.18
2022-10-01T03:00:07.760Z,49.19
2022-10-01T03:01:07.878Z,49.18
2022-10-01T03:02:07.974Z,49.17
2022-10-01T03:03:07.925Z,49.20
2022-10-01T03:04:07.983Z,49.20
2022-10-01T03:05:08.035Z,49.21
2022-10-01T03:06:08.121Z,49.18
2022-10-01T03:07:08.186Z,49.17
2022-10-01T03:08:08.226Z,49.17
2022-10-01T03:09:08.319Z,49.20
2022-10-01T03:10:08.374Z,49.18
2022-10-01T03:11:08.433Z,49.18
2022-10-01T03:12:08.446Z,49.20
2022-10-01T03:13:08.533Z,49.21
2022-10-01T03:14:08.563Z,49.19
2022-10-01T03:15:08.627Z,49.24
2022-10-01T03:16:08.762Z,49.25
2022-10-01T03:17:08.733Z,49.26
2022-10-01T03:18:08.794Z,49.27
2022-10-01T03:19:08.875Z,49.40
2022-10-01T03:20:08.912Z,49.42
2022-10-01T03:21:08.939Z,49.38
2022-10-01T03:22:08.996Z,49.38
2022-10-01T03:23:09.047Z,49.33
2022-10-01T03:24:09.076Z,49.32
2022-10-01T03:25:09.149Z,49.34
2022-10-01T03:26:09.166Z,49.33
2022-10-01T03:27:09.229Z,49.43
2022-10-01T03:28:09.349Z,49.54
2022-10-01T03:29:09.358Z,49.55
2022-10-01T03:30:09.411Z,49.55
2022-10-01T03:31:09.501Z,49.53
2022-10-01T03:32:09.496Z,49.55
2022-10-01T03:33:09.550Z,49.54
2022-10-01T03:34:09.592Z,49.53
2022-10-01T03:35:09.666Z,49.52
2022-10-01T03:36:09.727Z,49.47
2022-10-01T03:37:09.782Z,49.46
2022-10-01T03:38:09.847Z,49.45
2022-10-01T03:39:09.915Z,49.44
2022-10-01T03:40:09.971Z,49.42
2022-10-01T03:41:10.012Z,49.41
2022-10-01T03:42:10.058Z,49.39
2022-10-01T03:43:10.123Z,49.38
2022-10-01T03:44:10.172Z,49.37
2022-10-01T03:45:10.246Z,49.36
2022-10-01T03:46:10.375Z,49.37
2022-10-01T03:47:10.349Z,49.37
2022-10-01T03:48:10.430Z,49.37
2022-10-01T03:49:10.477Z,49.37
2022-10-01T03:50:10.548Z,49.36
2022-10-01T03:51:10.562Z,49.35
2022-10-01T03:52:10.641Z,49.34
2022-10-01T03:53:10.673Z,49.32
2022-10-01T03:54:10.712Z,49.35
2022-10-01T03:55:10.784Z,49.40
2022-10-01T03:56:10.819Z,49.57
2022-10-01T03:57:10.898Z,49.60
2022-10-01T03:58:10.897Z,49.55
2022-10-01T03:59:10.947Z,49.50
2022-10-01T04:00:11.034Z,49.49
2022-10-01T04:01:11.042Z,49.46
2022-10-01T04:02:11.283Z,49.44
2022-10-01T04:03:11.226Z,49.42
2022-10-01T04:04:11.216Z,49.42
2022-10-01T04:05:11.299Z,49.42
2022-10-01T04:06:11.322Z,49.41
2022-10-01T04:07:11.380Z,49.51
2022-10-01T04:08:11.436Z,49.56
2022-10-01T04:09:11.507Z,49.57
2022-10-01T04:10:11.768Z,49.52
2022-10-01T04:11:11.709Z,49.48
2022-10-01T04:12:11.657Z,49.44
2022-10-01T04:13:11.729Z,49.43
2022-10-01T04:14:11.761Z,49.41
2022-10-01T04:15:11.808Z,49.51
2022-10-01T04:16:11.893Z,49.58
2022-10-01T04:17:11.907Z,49.58
2022-10-01T04:18:11.962Z,49.53
2022-10-01T04:19:12.031Z,49.51
2022-10-01T04:20:12.082Z,49.51
2022-10-01T04:21:12.143Z,49.51
2022-10-01T04:22:12.197Z,49.49
2022-10-01T04:23:12.265Z,49.47
2022-10-01T04:24:12.312Z,49.45
2022-10-01T04:25:12.393Z,49.43
2022-10-01T04:26:12.434Z,49.41
2022-10-01T04:27:12.496Z,49.39
2022-10-01T04:28:12.584Z,49.45
2022-10-01T04:29:12.629Z,49.34
2022-10-01T04:30:12.719Z,49.27
2022-10-01T04:31:12.800Z,49.17
2022-10-01T04:32:12.791Z,49.11
2022-10-01T04:33:12.858Z,49.06
2022-10-01T04:34:12.890Z,49.01
2022-10-01T04:35:12.963Z,48.94
2022-10-01T04:36:12.993Z,48.91
2022-10-01T04:37:13.075Z,48.89
2022-10-01T04:38:13.148Z,48.87
2022-10-01T04:39:13.206Z,48.88
2022-10-01T04:40:13.265Z,48.88
2022-10-01T04:41:13.316Z,48.87
2022-10-01T04:42:13.387Z,48.83
2022-10-01T04:43:13.447Z,48.84
2022-10-01T04:44:13.502Z,48.84
2022-10-01T04:45:13.571Z,48.86
2022-10-01T04:46:13.619Z,48.87
2022-10-01T04:47:13.692Z,48.85
2022-10-01T04:48:13.704Z,48.86
2022-10-01T04:49:13.769Z,48.82
2022-10-01T04:50:13.830Z,48.82
2022-10-01T04:51:13.886Z,48.82
2022-10-01T04:52:13.936Z,48.96
2022-10-01T04:53:14.028Z,49.30
2022-10-01T04:54:14.036Z,49.42
2022-10-01T04:55:14.144Z,49.41
2022-10-01T04:56:14.162Z,49.32
2022-10-01T04:57:14.262Z,49.28
2022-10-01T04:58:14.302Z,49.28
2022-10-01T04:59:14.364Z,49.32
2022-10-01T05:00:14.421Z,49.55
2022-10-01T05:01:14.534Z,49.69
2022-10-01T05:02:14.644Z,49.75
2022-10-01T05:03:14.608Z,49.78
2022-10-01T05:04:14.713Z,49.81
2022-10-01T05:05:14.730Z,49.95
2022-10-01T05:06:14.798Z,49.97
2022-10-01T05:07:14.849Z,49.96
2022-10-01T05:08:14.919Z,49.92
2022-10-01T05:09:14.991Z,49.93
2022-10-01T05:10:15.034Z,49.96
2022-10-01T05:11:15.088Z,49.99
2022-10-01T05:12:15.148Z,49.94
2022-10-01T05:13:15.224Z,49.89
2022-10-01T05:14:15.303Z,49.88
2022-10-01T05:15:15.320Z,49.87
2022-10-01T05:16:15.416Z,49.85
2022-10-01T05:17:15.455Z,49.76
2022-10-01T05:18:15.524Z,49.87
2022-10-01T05:19:15.571Z,49.80
2022-10-01T05:20:15.623Z,49.76
2022-10-01T05:21:15.698Z,49.67
2022-10-01T05:22:15.756Z,49.59
2022-10-01T05:23:15.801Z,49.55
2022-10-01T05:24:15.886Z,49.49
2022-10-01T05:25:15.921Z,49.42
2022-10-01T05:26:15.999Z,49.37
2022-10-01T05:27:16.016Z,49.36
2022-10-01T05:28:21.350Z,49.46
2022-10-01T05:29:16.142Z,49.47
2022-10-01T05:30:16.193Z,49.47
2022-10-01T05:31:16.328Z,49.45
2022-10-01T05:32:16.342Z,49.40
2022-10-01T05:33:16.391Z,49.36
2022-10-01T05:34:16.472Z,49.32
2022-10-01T05:35:16.492Z,49.26
2022-10-01T05:36:16.554Z,49.27
2022-10-01T05:37:16.597Z,49.33
2022-10-01T05:38:16.664Z,49.29
2022-10-01T05:39:16.713Z,49.22
2022-10-01T05:40:16.775Z,49.13
2022-10-01T05:41:16.802Z,49.08
2022-10-01T05:42:16.860Z,49.06
2022-10-01T05:43:16.913Z,49.05
2022-10-01T05:44:16.984Z,49.04
2022-10-01T05:45:17.013Z,49.03
2022-10-01T05:46:17.097Z,49.00
2022-10-01T05:47:17.131Z,49.02
2022-10-01T05:48:17.157Z,49.00
2022-10-01T05:49:17.263Z,48.99
2022-10-01T05:50:17.286Z,48.98
2022-10-01T05:51:17.348Z,48.97
2022-10-01T05:52:17.422Z,48.95
2022-10-01T05:53:17.451Z,48.96
2022-10-01T05:54:17.542Z,48.96
2022-10-01T05:55:17.556Z,48.97
2022-10-01T05:56:17.615Z,48.98
2022-10-01T05:57:17.663Z,48.96
2022-10-01T05:58:17.729Z,48.99
2022-10-01T05:59:17.784Z,48.97
2022-10-01T06:00:17.847Z,48.98
2022-10-01T06:01:17.902Z,49.02
2022-10-01T06:02:18.018Z,48.98
2022-10-01T06:03:18.036Z,48.96
2022-10-01T06:04:18.064Z,48.96
2022-10-01T06:05:18.107Z,48.94
2022-10-01T06:06:18.150Z,48.94
2022-10-01T06:07:18.222Z,48.94
2022-10-01T06:08:18.286Z,48.93
2022-10-01T06:09:18.352Z,48.91
2022-10-01T06:10:18.372Z,48.93
2022-10-01T06:11:18.432Z,48.93
2022-10-01T06:12:19.967Z,48.91
2022-10-01T06:13:18.549Z,48.92
2022-10-01T06:14:18.578Z,48.92
2022-10-01T06:15:18.639Z,48.92
2022-10-01T06:16:18.754Z,48.94
2022-10-01T06:17:18.738Z,48.96
2022-10-01T06:18:18.784Z,49.03
2022-10-01T06:19:18.838Z,49.00
2022-10-01T06:20:18.890Z,48.99
2022-10-01T06:21:18.932Z,49.01
2022-10-01T06:22:18.990Z,49.38
2022-10-01T06:23:19.037Z,49.61
2022-10-01T06:24:19.133Z,49.77
2022-10-01T06:25:19.177Z,49.68
2022-10-01T06:26:19.256Z,49.70
2022-10-01T06:27:19.309Z,49.65
2022-10-01T06:28:19.403Z,49.63
2022-10-01T06:29:19.442Z,49.86
2022-10-01T06:30:19.491Z,50.04
2022-10-01T06:31:19.678Z,50.00
2022-10-01T06:32:19.595Z,49.85
2022-10-01T06:33:19.647Z,49.67
2022-10-01T06:34:19.752Z,49.58
2022-10-01T06:35:19.762Z,49.57
2022-10-01T06:36:19.839Z,49.57
2022-10-01T06:37:19.900Z,49.58
2022-10-01T06:38:19.965Z,49.57
2022-10-01T06:39:20.031Z,49.57
2022-10-01T06:40:20.062Z,49.57
2022-10-01T06:41:20.105Z,49.55
2022-10-01T06:42:20.178Z,49.57
2022-10-01T06:43:20.219Z,49.63
2022-10-01T06:44:20.270Z,49.71
2022-10-01T06:45:20.318Z,49.81
2022-10-01T06:46:20.461Z,49.96
2022-10-01T06:47:20.426Z,49.99
2022-10-01T06:48:20.493Z,50.17
2022-10-01T06:49:20.605Z,50.23
2022-10-01T06:50:20.647Z,50.29
2022-10-01T06:51:20.673Z,50.32
2022-10-01T06:52:20.766Z,50.32
2022-10-01T06:53:20.792Z,50.38
2022-10-01T06:54:20.872Z,50.45
2022-10-01T06:55:20.991Z,50.41
2022-10-01T06:56:20.960Z,50.44
2022-10-01T06:57:21.001Z,50.43
2022-10-01T06:58:21.077Z,50.39
2022-10-01T06:59:21.116Z,50.32
2022-10-01T07:00:21.155Z,50.24
2022-10-01T07:01:21.292Z,50.19
2022-10-01T07:02:21.307Z,50.14
2022-10-01T07:03:21.311Z,50.11
2022-10-01T07:04:21.548Z,50.12
2022-10-01T07:05:21.452Z,50.09
2022-10-01T07:06:21.506Z,50.07
2022-10-01T07:07:21.570Z,50.06
2022-10-01T07:08:21.616Z,50.05
2022-10-01T07:09:21.677Z,50.04
2022-10-01T07:10:21.713Z,50.03
2022-10-01T07:11:21.782Z,50.02
2022-10-01T07:12:21.854Z,50.03
2022-10-01T07:13:21.919Z,50.03
2022-10-01T07:14:21.972Z,50.00
2022-10-01T07:15:22.046Z,50.00
2022-10-01T07:16:22.199Z,50.07
2022-10-01T07:17:22.171Z,50.14
2022-10-01T07:18:22.202Z,50.18
2022-10-01T07:19:22.259Z,50.22
2022-10-01T07:20:22.314Z,50.23
2022-10-01T07:21:22.363Z,50.20
2022-10-01T07:22:22.425Z,50.17
2022-10-01T07:23:22.496Z,50.13
2022-10-01T07:24:22.567Z,50.10
2022-10-01T07:25:22.596Z,50.05
2022-10-01T07:26:22.661Z,50.10
2022-10-01T07:27:22.723Z,50.12
2022-10-01T07:28:22.833Z,50.13
2022-10-01T07:29:22.810Z,50.10
2022-10-01T07:30:22.888Z,50.07
2022-10-01T07:31:23.013Z,50.02
2022-10-01T07:32:23.010Z,49.96
2022-10-01T07:33:23.036Z,49.93
2022-10-01T07:34:23.162Z,49.88
2022-10-01T07:35:23.148Z,49.87
2022-10-01T07:36:23.206Z,49.85
2022-10-01T07:37:23.275Z,49.82
2022-10-01T07:38:23.334Z,49.81
2022-10-01T07:39:23.373Z,49.81
2022-10-01T07:40:23.468Z,49.77
2022-10-01T07:41:23.475Z,49.75
2022-10-01T07:42:23.565Z,49.73
2022-10-01T07:43:23.562Z,49.71
2022-10-01T07:44:23.600Z,49.71
2022-10-01T07:45:23.671Z,49.70
2022-10-01T07:46:23.746Z,49.69
2022-10-01T07:47:23.781Z,49.67
2022-10-01T07:48:23.835Z,49.65
2022-10-01T07:49:23.894Z,49.64
2022-10-01T07:50:23.973Z,49.61
2022-10-01T07:51:23.986Z,49.62
2022-10-01T07:52:24.059Z,49.60
2022-10-01T07:53:24.125Z,49.61
2022-10-01T07:54:24.170Z,49.59
2022-10-01T07:55:24.220Z,49.61
2022-10-01T07:56:24.293Z,49.59
2022-10-01T07:57:24.405Z,49.58
2022-10-01T07:58:24.493Z,49.57
2022-10-01T07:59:24.484Z,49.57
2022-10-01T08:00:24.593Z,49.56
2022-10-01T08:01:24.665Z,49.54
2022-10-01T08:02:24.675Z,49.54
2022-10-01T08:03:24.690Z,49.54
2022-10-01T08:04:24.764Z,49.49
2022-10-01T08:05:24.809Z,49.48
2022-10-01T08:06:25.844Z,49.47
2022-10-01T08:07:24.943Z,49.45
2022-10-01T08:08:24.981Z,49.45
2022-10-01T08:09:25.025Z,49.41
2022-10-01T08:10:25.095Z,49.40
2022-10-01T08:11:25.116Z,49.40
2022-10-01T08:12:25.189Z,49.39
2022-10-01T08:13:25.225Z,49.37
2022-10-01T08:14:25.275Z,49.35
2022-10-01T08:15:25.329Z,49.33
2022-10-01T08:16:25.455Z,49.32
2022-10-01T08:17:29.342Z,49.30
2022-10-01T08:18:25.505Z,49.30
2022-10-01T08:19:25.536Z,49.28
2022-10-01T08:20:25.623Z,49.26
2022-10-01T08:21:25.660Z,49.24
2022-10-01T08:22:25.748Z,49.23
2022-10-01T08:23:25.778Z,49.21
2022-10-01T08:24:25.850Z,49.19
2022-10-01T08:25:25.922Z,49.17
2022-10-01T08:26:25.970Z,49.16
2022-10-01T08:27:26.056Z,49.14
2022-10-01T08:28:26.183Z,49.13
2022-10-01T08:29:26.142Z,49.12
2022-10-01T08:30:26.233Z,49.10
2022-10-01T08:31:26.357Z,49.08
2022-10-01T08:32:26.341Z,49.06
2022-10-01T08:33:26.374Z,49.06
2022-10-01T08:34:26.466Z,49.07
2022-10-01T08:35:26.501Z,49.05
2022-10-01T08:36:26.549Z,49.04
2022-10-01T08:37:26.638Z,49.02
2022-10-01T08:38:26.691Z,49.01
2022-10-01T08:39:26.731Z,49.00
2022-10-01T08:40:26.758Z,49.01
2022-10-01T08:41:26.814Z,48.99
2022-10-01T08:42:26.892Z,48.98
2022-10-01T08:43:26.918Z,48.96
2022-10-01T08:44:26.970Z,48.95
2022-10-01T08:45:27.058Z,48.95
2022-10-01T08:46:27.072Z,48.93
2022-10-01T08:47:27.155Z,48.91
2022-10-01T08:48:27.229Z,48.93
2022-10-01T08:49:27.260Z,48.91
2022-10-01T08:50:27.319Z,48.90
2022-10-01T08:51:27.348Z,48.89
2022-10-01T08:52:27.460Z,48.87
2022-10-01T08:53:27.470Z,48.88
2022-10-01T08:54:27.549Z,48.87
2022-10-01T08:55:27.661Z,48.85
2022-10-01T08:56:27.670Z,48.85
2022-10-01T08:57:27.774Z,48.85
2022-10-01T08:58:27.802Z,48.84
2022-10-01T08:59:27.892Z,48.82
2022-10-01T09:00:27.924Z,48.82
2022-10-01T09:01:28.058Z,48.82
2022-10-01T09:02:28.091Z,48.81
2022-10-01T09:03:28.145Z,48.81
2022-10-01T09:04:28.295Z,48.80
2022-10-01T09:05:28.255Z,48.78
2022-10-01T09:06:28.319Z,48.79
2022-10-01T09:07:28.380Z,48.78
2022-10-01T09:08:28.443Z,48.78
2022-10-01T09:09:28.503Z,48.77
2022-10-01T09:10:28.609Z,48.78
2022-10-01T09:11:28.622Z,48.78
2022-10-01T09:12:28.702Z,48.77
2022-10-01T09:13:28.722Z,48.78
2022-10-01T09:14:28.791Z,48.76
2022-10-01T09:15:28.836Z,48.76
2022-10-01T09:16:28.951Z,48.76
2022-10-01T09:17:28.968Z,48.74
2022-10-01T09:18:29.022Z,48.75
2022-10-01T09:19:29.094Z,48.72
2022-10-01T09:20:29.167Z,48.73
2022-10-01T09:21:29.192Z,48.72
2022-10-01T09:22:29.288Z,48.72
2022-10-01T09:23:29.303Z,48.71
2022-10-01T09:24:29.374Z,48.71
2022-10-01T09:25:29.430Z,48.72
2022-10-01T09:26:29.479Z,48.72
2022-10-01T09:27:29.563Z,48.71
2022-10-01T09:28:29.705Z,48.71
2022-10-01T09:29:29.696Z,48.71
2022-10-01T09:30:29.693Z,48.68
2022-10-01T09:31:29.810Z,48.66
2022-10-01T09:32:29.839Z,48.68
2022-10-01T09:33:29.878Z,48.68
2022-10-01T09:34:29.970Z,48.67
2022-10-01T09:35:29.998Z,48.67
2022-10-01T09:36:30.053Z,48.68
2022-10-01T09:37:30.115Z,48.67
2022-10-01T09:38:30.142Z,48.66
2022-10-01T09:39:30.191Z,48.65
2022-10-01T09:40:30.264Z,48.64
2022-10-01T09:41:30.323Z,48.65
2022-10-01T09:42:30.379Z,48.64
2022-10-01T09:43:30.462Z,48.65
2022-10-01T09:44:30.501Z,48.64
2022-10-01T09:45:30.594Z,48.62
2022-10-01T09:46:30.649Z,48.64
2022-10-01T09:47:30.654Z,48.64
2022-10-01T09:48:30.761Z,48.62
2022-10-01T09:49:30.769Z,48.62
2022-10-01T09:50:30.836Z,48.63
2022-10-01T09:51:30.913Z,48.62
2022-10-01T09:52:30.970Z,48.62
2022-10-01T09:53:31.009Z,48.62
2022-10-01T09:54:31.051Z,48.60
2022-10-01T09:55:31.122Z,48.60
2022-10-01T09:56:31.172Z,48.60
2022-10-01T09:57:31.279Z,48.60
2022-10-01T09:58:31.305Z,48.59
2022-10-01T09:59:31.361Z,48.59
2022-10-01T10:00:31.424Z,48.59
2022-10-01T10:01:31.566Z,48.60
2022-10-01T10:02:31.735Z,48.59
2022-10-01T10:03:31.760Z,48.59
2022-10-01T10:04:31.666Z,48.58
2022-10-01T10:05:31.748Z,48.57
2022-10-01T10:06:32.259Z,48.59
2022-10-01T10:07:31.872Z,48.57
2022-10-01T10:08:31.916Z,48.59
2022-10-01T10:09:31.987Z,48.57
2022-10-01T10:10:32.061Z,48.57
2022-10-01T10:11:32.359Z,48.58
2022-10-01T10:12:32.197Z,48.57
2022-10-01T10:13:32.241Z,48.55
2022-10-01T10:14:32.301Z,48.56
2022-10-01T10:15:32.522Z,48.55
2022-10-01T10:16:32.840Z,48.57
2022-10-01T10:17:32.499Z,48.57
2022-10-01T10:18:32.565Z,48.57
2022-10-01T10:19:32.642Z,48.57
2022-10-01T10:20:32.709Z,48.57
2022-10-01T10:21:32.776Z,48.58
2022-10-01T10:22:32.836Z,48.55
2022-10-01T10:23:32.911Z,48.56
2022-10-01T10:24:32.982Z,48.57
2022-10-01T10:25:33.047Z,48.55
2022-10-01T10:26:33.549Z,48.56
2022-10-01T10:27:33.203Z,48.56
2022-10-01T10:28:37.611Z,48.57
2022-10-01T10:29:33.325Z,48.58
2022-10-01T10:30:33.397Z,48.57
2022-10-01T10:31:33.541Z,48.57
2022-10-01T10:32:33.507Z,48.58
2022-10-01T10:33:33.566Z,48.57
2022-10-01T10:34:33.633Z,48.58
2022-10-01T10:35:33.715Z,48.57
2022-10-01T10:36:34.063Z,48.57
2022-10-01T10:37:33.844Z,48.58
2022-10-01T10:38:33.887Z,48.58
2022-10-01T10:39:33.967Z,48.58
2022-10-01T10:40:34.008Z,48.60
2022-10-01T10:41:34.328Z,48.59
2022-10-01T10:42:34.172Z,48.59
2022-10-01T10:43:34.202Z,48.58
2022-10-01T10:44:34.275Z,48.58
2022-10-01T10:45:34.356Z,48.58
2022-10-01T10:46:34.444Z,48.58
2022-10-01T10:47:34.476Z,48.57
2022-10-01T10:48:34.512Z,48.58
2022-10-01T10:49:34.554Z,48.59
2022-10-01T10:50:34.639Z,48.60
2022-10-01T10:51:34.949Z,48.59
2022-10-01T10:52:34.761Z,48.58
2022-10-01T10:53:34.842Z,48.59
2022-10-01T10:54:34.899Z,48.58
2022-10-01T10:55:34.994Z,48.60
2022-10-01T10:56:35.299Z,48.59
2022-10-01T10:57:35.088Z,48.58
2022-10-01T10:58:35.152Z,48.59
2022-10-01T10:59:35.226Z,48.58
2022-10-01T11:00:35.279Z,48.58
2022-10-01T11:01:35.734Z,48.58
2022-10-01T11:02:35.486Z,48.58
2022-10-01T11:03:35.426Z,48.60
2022-10-01T11:04:35.503Z,48.58
2022-10-01T11:05:35.615Z,48.57
2022-10-01T11:06:36.086Z,48.58
2022-10-01T11:07:35.735Z,48.59
2022-10-01T11:08:35.738Z,48.58
2022-10-01T11:09:35.800Z,48.58
2022-10-01T11:10:35.885Z,48.58
2022-10-01T11:11:35.913Z,48.59
2022-10-01T11:12:35.978Z,48.60
2022-10-01T11:13:36.064Z,48.59
2022-10-01T11:14:36.110Z,48.59
2022-10-01T11:15:36.218Z,48.60
2022-10-01T11:16:36.672Z,48.60
2022-10-01T11:17:36.245Z,48.61
2022-10-01T11:18:36.302Z,48.61
2022-10-01T11:19:36.345Z,48.61
2022-10-01T11:20:36.429Z,48.59
2022-10-01T11:21:36.467Z,48.59
2022-10-01T11:22:36.579Z,48.59
2022-10-01T11:23:36.603Z,48.61
2022-10-01T11:24:36.658Z,48.61
2022-10-01T11:25:36.715Z,48.60
2022-10-01T11:26:37.179Z,48.61
2022-10-01T11:27:36.820Z,48.61
2022-10-01T11:28:36.865Z,48.60
2022-10-01T11:29:36.947Z,48.60
2022-10-01T11:30:37.003Z,48.60
2022-10-01T11:31:37.076Z,48.61
2022-10-01T11:32:37.111Z,48.60
2022-10-01T11:33:37.224Z,48.61
2022-10-01T11:34:37.225Z,48.61
2022-10-01T11:35:37.303Z,48.61
2022-10-01T11:36:37.473Z,48.61
2022-10-01T11:37:37.377Z,48.61
2022-10-01T11:38:37.540Z,48.61
2022-10-01T11:39:37.487Z,48.61
2022-10-01T11:40:37.708Z,48.61
2022-10-01T11:41:37.680Z,48.61
2022-10-01T11:42:37.653Z,48.62
2022-10-01T11:43:37.898Z,48.62
2022-10-01T11:44:37.787Z,48.63
2022-10-01T11:45:37.829Z,48.62
2022-10-01T11:46:38.413Z,48.63
2022-10-01T11:47:37.968Z,48.64
2022-10-01T11:48:38.019Z,48.63
2022-10-01T11:49:38.116Z,48.64
2022-10-01T11:50:39.490Z,48.63
2022-10-01T11:51:38.209Z,48.63
2022-10-01T11:52:38.280Z,48.64
2022-10-01T11:53:38.351Z,48.65
2022-10-01T11:54:38.428Z,48.64
2022-10-01T11:55:38.459Z,48.64
2022-10-01T11:56:38.545Z,48.64
2022-10-01T11:57:38.755Z,48.64
2022-10-01T11:58:38.626Z,48.66
2022-10-01T11:59:38.696Z,48.63
2022-10-01T12:00:38.769Z,48.64
2022-10-01T12:01:38.856Z,48.64
2022-10-01T12:02:38.853Z,48.64
2022-10-01T12:03:38.931Z,48.64
2022-10-01T12:04:39.004Z,48.63
2022-10-01T12:05:39.146Z,48.64
2022-10-01T12:06:39.794Z,48.64
2022-10-01T12:07:39.161Z,48.66
2022-10-01T12:08:39.233Z,48.64
2022-10-01T12:09:39.285Z,48.64
2022-10-01T12:10:39.317Z,48.65
2022-10-01T12:11:39.476Z,48.63
2022-10-01T12:12:39.460Z,48.62
2022-10-01T12:13:39.503Z,48.63
2022-10-01T12:14:39.599Z,48.63
2022-10-01T12:15:39.623Z,48.64
2022-10-01T12:16:40.171Z,48.65
2022-10-01T12:17:39.751Z,48.67
2022-10-01T12:18:39.812Z,48.65
2022-10-01T12:19:39.851Z,48.66
2022-10-01T12:20:39.906Z,48.65
2022-10-01T12:21:39.962Z,48.67
2022-10-01T12:22:40.041Z,48.67
2022-10-01T12:23:40.047Z,48.68
2022-10-01T12:24:40.129Z,48.69
2022-10-01T12:25:40.166Z,48.68
2022-10-01T12:26:40.223Z,48.68
2022-10-01T12:27:40.387Z,48.68
2022-10-01T12:28:40.325Z,48.70
2022-10-01T12:29:40.401Z,48.69
2022-10-01T12:30:40.435Z,48.70
2022-10-01T12:31:40.573Z,48.70
2022-10-01T12:32:40.551Z,48.70
2022-10-01T12:33:40.630Z,48.71
2022-10-01T12:34:40.776Z,48.71
2022-10-01T12:35:40.780Z,48.73
2022-10-01T12:36:40.821Z,48.73
2022-10-01T12:37:40.899Z,48.73
2022-10-01T12:38:40.941Z,48.73
2022-10-01T12:39:41.005Z,48.72
2022-10-01T12:40:41.056Z,48.75
2022-10-01T12:41:41.110Z,48.74
2022-10-01T12:42:41.146Z,48.74
2022-10-01T12:43:41.208Z,48.75
2022-10-01T12:44:41.313Z,48.75
2022-10-01T12:45:41.326Z,48.75
2022-10-01T12:46:41.668Z,48.75
2022-10-01T12:47:41.480Z,48.75
2022-10-01T12:48:41.547Z,48.75
2022-10-01T12:49:41.619Z,48.77
2022-10-01T12:50:41.664Z,48.77
2022-10-01T12:51:41.779Z,48.75
2022-10-01T12:52:41.803Z,48.77
2022-10-01T12:53:41.888Z,48.79